Time;durP1;ratioP1;P1;durP2;ratioP2;P2;SDS_P1;SDS_P2;PMS_P1;PMS_P2;Temp;Humidity;BMP_temperature;BMP_pressure;BME280_temperature;BME280_humidity;BME280_pressure;Samples;Min_cycle;Max_cycle;Signal;HPM_P1;HPM_P2
2021/11/14 00:00:50;;;;;;;;;4.25;4.25;;;;;21.58;40.78;101398.16;4956622;28;51062;-51
2021/11/14 00:03:16;;;;;;;;;3.25;2.00;;;;;21.54;40.95;101397.72;4958088;28;51027;-48
2021/11/14 00:05:43;;;;;;;;;2.50;2.50;;;;;21.53;40.91;101400.69;4961280;28;51866;-49
2021/11/14 00:08:11;;;;;;;;;3.25;3.25;;;;;21.52;40.48;101407.28;4973038;28;51127;-50
2021/11/14 00:10:37;;;;;;;;;4.00;4.00;;;;;21.50;41.11;101401.97;4955878;28;51130;-50
2021/11/14 00:13:04;;;;;;;;;3.50;2.50;;;;;21.48;40.78;101404.09;4954514;28;51151;-49
2021/11/14 00:15:29;;;;;;;;;3.75;3.00;;;;;21.45;40.67;101400.91;4960202;28;51084;-50
2021/11/14 00:17:55;;;;;;;;;4.00;3.50;;;;;21.44;40.56;101408.34;4953915;28;51786;-51
2021/11/14 00:20:22;;;;;;;;;3.00;3.00;;;;;21.44;40.58;101401.97;4973492;28;51517;-47
2021/11/14 00:22:47;;;;;;;;;4.00;4.00;;;;;21.42;41.01;101399.44;4973669;28;51082;-48
2021/11/14 00:25:14;;;;;;;;;2.00;2.00;;;;;21.40;41.24;101400.72;4969795;28;50973;-51
2021/11/14 00:27:40;;;;;;;;;2.25;1.25;;;;;21.39;40.60;101402.63;4968278;28;51069;-49
2021/11/14 00:30:07;;;;;;;;;3.00;3.00;;;;;21.38;41.24;101403.72;4956688;28;51051;-46
2021/11/14 00:32:32;;;;;;;;;3.00;3.00;;;;;21.37;41.04;101401.16;4972868;28;51140;-46
2021/11/14 00:34:58;;;;;;;;;3.50;1.50;;;;;21.35;40.77;101400.50;4970242;28;51838;-46
2021/11/14 00:37:23;;;;;;;;;2.00;2.00;;;;;21.35;40.88;101403.25;4953814;28;50955;-52
2021/11/14 00:39:48;;;;;;;;;3.00;3.00;;;;;21.33;40.99;101397.97;4954653;28;51532;-49
2021/11/14 00:42:14;;;;;;;;;3.25;3.25;;;;;21.30;40.72;101399.25;4969532;28;51202;-48
2021/11/14 00:44:39;;;;;;;;;3.00;2.75;;;;;21.30;40.85;101406.69;4959815;28;51294;-50
2021/11/14 00:47:06;;;;;;;;;4.00;2.00;;;;;21.28;40.88;101404.13;4953685;28;50877;-50
2021/11/14 00:49:31;;;;;;;;;3.00;3.00;;;;;21.27;40.79;101409.88;4963326;28;51002;-49
2021/11/14 00:51:57;;;;;;;;;4.00;3.00;;;;;21.26;40.90;101405.44;4957272;28;51099;-46
2021/11/14 00:54:22;;;;;;;;;2.50;2.50;;;;;21.24;41.39;101402.81;4953173;28;51628;-48
2021/11/14 00:56:48;;;;;;;;;3.00;3.00;;;;;21.24;40.78;101402.81;4968157;28;51330;-49
2021/11/14 00:59:13;;;;;;;;;3.75;3.00;;;;;21.23;41.33;101406.66;4954203;28;51190;-49
2021/11/14 01:01:39;;;;;;;;;3.00;3.00;;;;;21.21;41.16;101403.25;4954709;28;51203;-44
2021/11/14 01:04:04;;;;;;;;;3.75;3.75;;;;;21.22;40.94;101404.09;4954528;28;51157;-48
2021/11/14 01:06:30;;;;;;;;;1.75;1.75;;;;;21.22;40.81;101401.34;4954943;28;51137;-48
2021/11/14 01:08:56;;;;;;;;;1.50;1.50;;;;;21.21;41.33;101402.41;4953858;28;51133;-50
2021/11/14 01:11:22;;;;;;;;;3.75;1.75;;;;;21.20;40.99;101397.97;4957592;28;51180;-47
2021/11/14 01:13:47;;;;;;;;;3.00;3.00;;;;;21.19;41.34;101399.88;4961455;28;51601;-50
2021/11/14 01:16:22;;;;;;;;;5.50;3.75;;;;;21.18;41.05;101400.94;4958731;28;51114;-51
2021/11/14 01:18:47;;;;;;;;;3.50;3.00;;;;;21.17;41.50;101398.41;4964669;28;51030;-51
2021/11/14 01:21:16;;;;;;;;;2.00;2.00;;;;;21.16;41.17;101403.06;4969772;28;51295;-52
2021/11/14 01:23:43;;;;;;;;;4.75;3.00;;;;;21.15;41.15;101409.63;4953726;28;52842;-46
2021/11/14 01:26:08;;;;;;;;;4.00;3.00;;;;;21.15;41.65;101415.13;4957945;28;51459;-49
2021/11/14 01:28:33;;;;;;;;;3.75;2.75;;;;;21.14;41.72;101404.31;4963187;28;51074;-51
2021/11/14 01:30:59;;;;;;;;;2.25;2.25;;;;;21.14;41.81;101404.31;4960520;28;51142;-51
2021/11/14 01:33:27;;;;;;;;;2.00;2.00;;;;;21.12;41.67;101401.78;4953298;28;51307;-49
2021/11/14 01:35:53;;;;;;;;;1.00;1.00;;;;;21.13;41.81;101406.22;4953457;28;51012;-52
2021/11/14 01:38:19;;;;;;;;;2.50;2.00;;;;;21.11;41.68;101404.75;4967412;28;51200;-50
2021/11/14 01:40:59;;;;;;;;;2.00;2.00;;;;;21.09;41.55;101404.97;4971765;28;51055;-45
2021/11/14 01:43:30;;;;;;;;;2.75;2.00;;;;;21.10;41.67;101405.81;4972480;28;51899;-48
2021/11/14 01:45:57;;;;;;;;;2.25;2.25;;;;;21.08;41.22;101402.44;4970855;28;50993;-49
2021/11/14 01:48:22;;;;;;;;;1.50;1.50;;;;;21.06;41.63;101408.16;4967970;28;51220;-50
2021/11/14 01:50:48;;;;;;;;;2.25;2.25;;;;;21.06;41.35;101402.66;4962108;28;51136;-51
2021/11/14 01:53:14;;;;;;;;;2.50;2.50;;;;;21.04;41.63;101402.84;4952112;28;52483;-49
2021/11/14 01:55:43;;;;;;;;;2.25;2.25;;;;;21.05;41.76;101406.47;4965166;28;51121;-52
2021/11/14 01:58:12;;;;;;;;;2.00;2.00;;;;;21.01;41.69;101406.03;4987281;27;51037;-50
2021/11/14 02:00:43;;;;;;;;;2.50;2.00;;;;;21.01;41.27;101407.94;4971278;28;51143;-51
2021/11/14 02:03:09;;;;;;;;;2.00;2.00;;;;;21.00;41.27;101409.84;4958551;28;51253;-50
2021/11/14 02:05:35;;;;;;;;;1.50;1.00;;;;;21.00;41.72;101411.75;4955034;28;51168;-48
2021/11/14 02:08:05;;;;;;;;;2.25;2.25;;;;;20.99;41.71;101415.56;4956275;28;51189;-47
2021/11/14 02:10:31;;;;;;;;;3.00;3.00;;;;;20.97;41.58;101409.44;4957122;28;51311;-49
2021/11/14 02:12:58;;;;;;;;;2.75;2.75;;;;;20.96;41.27;101413.25;4956099;28;51917;-51
2021/11/14 02:15:23;;;;;;;;;3.00;3.00;;;;;20.96;41.59;101418.75;4974945;28;51397;-46
2021/11/14 02:17:49;;;;;;;;;2.00;2.00;;;;;20.95;41.25;101417.06;4974986;28;51109;-49
2021/11/14 02:20:15;;;;;;;;;2.00;1.75;;;;;20.93;41.52;101417.25;4973966;28;50969;-51
2021/11/14 02:22:41;;;;;;;;;3.25;2.75;;;;;20.93;41.65;101416.41;4975349;28;51297;-45
2021/11/14 02:25:08;;;;;;;;;4.00;2.75;;;;;20.92;41.35;101418.31;4973491;28;51043;-51
2021/11/14 02:27:34;;;;;;;;;2.75;2.75;;;;;20.92;41.21;101420.22;4970942;28;51168;-50
2021/11/14 02:30:00;;;;;;;;;1.75;1.75;;;;;20.89;41.40;101418.75;4964428;28;51310;-50
2021/11/14 02:32:26;;;;;;;;;1.75;1.75;;;;;20.89;41.67;101416.00;4960201;28;51016;-50
2021/11/14 02:34:51;;;;;;;;;2.00;2.00;;;;;20.89;41.71;101417.91;4955982;28;51158;-49
2021/11/14 02:37:16;;;;;;;;;2.00;1.75;;;;;20.89;41.36;101423.41;4960188;28;51179;-45
2021/11/14 02:39:42;;;;;;;;;2.00;1.75;;;;;20.87;41.81;101418.13;4962359;28;51168;-48
2021/11/14 02:42:08;;;;;;;;;3.00;1.00;;;;;20.85;41.76;101417.47;4963700;28;51545;-49
2021/11/14 02:44:33;;;;;;;;;2.75;2.00;;;;;20.85;41.05;101411.97;4955968;28;51271;-49
2021/11/14 02:46:59;;;;;;;;;2.00;1.00;;;;;20.85;41.69;101413.88;4970239;28;51285;-47
2021/11/14 02:49:25;;;;;;;;;4.00;3.25;;;;;20.84;41.87;101413.03;4959357;28;51158;-50
2021/11/14 02:51:51;;;;;;;;;3.00;2.00;;;;;20.82;41.74;101406.88;4974253;28;51550;-47
2021/11/14 02:54:17;;;;;;;;;1.50;1.00;;;;;20.82;41.73;101409.63;4971448;28;51584;-51
2021/11/14 02:56:43;;;;;;;;;2.00;2.00;;;;;20.81;41.68;101407.94;4974938;28;51149;-50
2021/11/14 02:59:09;;;;;;;;;1.00;1.00;;;;;20.80;41.38;101406.25;4968946;28;51092;-47
2021/11/14 03:01:41;;;;;;;;;4.00;2.00;;;;;20.78;41.81;101405.59;4965570;28;51123;-46
2021/11/14 03:04:14;;;;;;;;;1.75;1.25;;;;;20.78;41.63;101408.38;4974509;28;51344;-46
2021/11/14 03:06:41;;;;;;;;;1.50;1.00;;;;;20.78;41.67;101407.50;4955641;28;51018;-47
2021/11/14 03:09:07;;;;;;;;;3.00;2.25;;;;;20.78;41.33;101407.50;4956431;28;51056;-48
2021/11/14 03:11:33;;;;;;;;;1.00;1.00;;;;;20.75;41.46;101404.13;4957729;28;51058;-49
2021/11/14 03:13:58;;;;;;;;;1.00;1.00;;;;;20.74;42.10;101394.19;4974289;28;51146;-48
2021/11/14 03:16:26;;;;;;;;;1.00;1.00;;;;;20.74;42.02;101396.94;4974055;28;51138;-46
2021/11/14 03:18:53;;;;;;;;;1.00;1.00;;;;;20.73;41.58;101400.72;4971302;28;51141;-48
2021/11/14 03:21:19;;;;;;;;;2.00;2.00;;;;;20.73;41.87;101399.88;4961872;28;51062;-49
2021/11/14 03:23:44;;;;;;;;;5.00;2.00;;;;;20.72;41.61;101410.03;4956644;28;51211;-48
2021/11/14 03:26:10;;;;;;;;;2.00;2.00;;;;;20.72;42.08;101418.28;4955691;28;51100;-51
2021/11/14 03:28:35;;;;;;;;;1.25;1.25;;;;;20.71;41.41;101413.00;4954487;28;50896;-48
2021/11/14 03:31:01;;;;;;;;;1.00;1.00;;;;;20.70;42.01;101420.41;4972773;28;52021;-50
2021/11/14 03:33:27;;;;;;;;;2.00;1.75;;;;;20.69;42.06;101413.22;4964021;28;51095;-50
2021/11/14 03:36:05;;;;;;;;;1.00;1.00;;;;;20.69;41.98;101413.22;4955386;28;51011;-48
2021/11/14 03:38:34;;;;;;;;;3.00;2.00;;;;;20.68;41.43;101413.44;4954165;28;51398;-51
2021/11/14 03:41:05;;;;;;;;;1.00;1.00;;;;;20.67;41.79;101417.25;4971647;28;51035;-46
2021/11/14 03:43:33;;;;;;;;;1.00;1.00;;;;;20.66;41.75;101416.41;4972953;28;51384;-48
2021/11/14 03:45:58;;;;;;;;;2.00;2.00;;;;;20.65;41.86;101417.47;4973931;27;51188;-51
2021/11/14 03:48:25;;;;;;;;;2.50;2.50;;;;;20.65;41.85;101414.72;4974120;28;51034;-49
2021/11/14 03:50:50;;;;;;;;;1.50;1.50;;;;;20.65;42.00;101420.22;4965893;27;51445;-45
2021/11/14 03:53:16;;;;;;;;;2.00;1.50;;;;;20.64;41.87;101413.00;4955967;28;51201;-50
2021/11/14 03:55:42;;;;;;;;;2.00;1.00;;;;;20.64;41.96;101412.16;4964089;28;51063;-46
2021/11/14 03:58:08;;;;;;;;;1.75;1.75;;;;;20.63;41.98;101422.31;4974013;28;50991;-51
2021/11/14 04:00:38;;;;;;;;;1.25;1.25;;;;;20.62;41.74;101417.00;4970578;28;51726;-49
2021/11/14 04:03:04;;;;;;;;;0.25;0.25;;;;;20.62;41.70;101417.00;4972318;28;51110;-48
2021/11/14 04:05:30;;;;;;;;;1.00;1.00;;;;;20.61;41.62;101424.41;4974045;28;51116;-45
2021/11/14 04:07:56;;;;;;;;;1.00;1.00;;;;;20.60;42.08;101413.63;4959557;28;50970;-49
2021/11/14 04:10:22;;;;;;;;;0.25;0.25;;;;;20.61;41.99;101420.81;4959354;28;51981;-46
2021/11/14 04:12:47;;;;;;;;;1.00;1.00;;;;;20.59;41.58;101421.03;4956089;28;51150;-50
2021/11/14 04:15:15;;;;;;;;;1.50;1.50;;;;;20.60;42.02;101419.13;4954795;28;51430;-45
2021/11/14 04:17:42;;;;;;;;;3.00;1.00;;;;;20.58;41.75;101424.84;4969440;28;51088;-51
2021/11/14 04:20:09;;;;;;;;;4.00;2.25;;;;;20.58;41.57;101424.00;4966571;28;51109;-47
2021/11/14 04:22:35;;;;;;;;;2.00;1.75;;;;;20.57;41.94;101414.06;4972661;28;52258;-50
2021/11/14 04:25:01;;;;;;;;;3.75;1.00;;;;;20.56;41.86;101410.44;4973857;28;51176;-51
2021/11/14 04:27:26;;;;;;;;;2.50;2.50;;;;;20.56;42.22;101404.94;4966443;28;50960;-48
2021/11/14 04:29:52;;;;;;;;;0.00;0.00;;;;;20.55;41.90;101410.66;4960940;28;51153;-49
2021/11/14 04:32:18;;;;;;;;;2.00;1.50;;;;;20.54;41.95;101404.31;4972177;28;51400;-51
2021/11/14 04:34:44;;;;;;;;;2.25;1.00;;;;;20.55;41.72;101402.41;4973505;28;51304;-47
2021/11/14 04:37:09;;;;;;;;;0.50;0.50;;;;;20.54;41.77;101406.22;4972095;28;51144;-49
2021/11/14 04:39:35;;;;;;;;;3.00;1.50;;;;;20.53;41.72;101405.38;4963401;28;51892;-46
2021/11/14 04:42:03;;;;;;;;;1.00;1.00;;;;;20.53;42.14;101415.50;4972258;28;51175;-45
2021/11/14 04:44:29;;;;;;;;;2.00;2.00;;;;;20.53;41.86;101410.00;4955078;28;51288;-51
2021/11/14 04:46:55;;;;;;;;;0.00;0.00;;;;;20.52;42.05;101413.81;4967677;28;51248;-51
2021/11/14 04:49:21;;;;;;;;;1.25;1.25;;;;;20.51;41.78;101417.63;4965565;28;51764;-47
2021/11/14 04:51:50;;;;;;;;;2.00;1.25;;;;;20.50;42.27;101411.28;4956187;28;51105;-47
2021/11/14 04:54:17;;;;;;;;;2.75;1.50;;;;;20.49;42.14;101420.59;4973365;28;51167;-52
2021/11/14 04:56:43;;;;;;;;;2.50;1.00;;;;;20.49;41.79;101417.00;4959505;28;51307;-46
2021/11/14 04:59:09;;;;;;;;;1.25;1.25;;;;;20.48;42.07;101418.91;4959015;28;50973;-49
2021/11/14 05:01:35;;;;;;;;;1.75;1.75;;;;;20.47;42.27;101411.69;4954578;28;51521;-49
2021/11/14 05:04:00;;;;;;;;;1.50;1.50;;;;;20.46;42.20;101410.00;4959523;28;51170;-45
2021/11/14 05:06:26;;;;;;;;;2.00;2.00;;;;;20.45;41.93;101408.31;4973121;28;51186;-49
2021/11/14 05:08:51;;;;;;;;;1.50;0.75;;;;;20.45;42.18;101411.06;4963732;28;51232;-47
2021/11/14 05:11:16;;;;;;;;;2.00;2.00;;;;;20.44;42.01;101412.97;4961669;28;51954;-50
2021/11/14 05:13:42;;;;;;;;;1.75;1.75;;;;;20.44;42.17;101406.63;4954535;28;51150;-47
2021/11/14 05:16:08;;;;;;;;;2.50;2.00;;;;;20.44;42.19;101412.13;4963446;28;51215;-50
2021/11/14 05:18:34;;;;;;;;;2.00;1.50;;;;;20.43;41.93;101419.53;4969659;28;52089;-51
2021/11/14 05:21:00;;;;;;;;;1.50;1.50;;;;;20.42;41.94;101408.69;4973217;28;51164;-49
2021/11/14 05:23:26;;;;;;;;;2.00;2.00;;;;;20.43;42.21;101407.69;4970730;28;51223;-45
2021/11/14 05:25:52;;;;;;;;;2.00;2.00;;;;;20.41;41.84;101413.34;4955244;28;51130;-50
2021/11/14 05:28:18;;;;;;;;;1.75;1.00;;;;;20.41;41.99;101409.75;4975959;28;51188;-50
2021/11/14 05:30:43;;;;;;;;;2.25;1.50;;;;;20.41;42.06;101410.59;4955646;28;51509;-49
2021/11/14 05:33:09;;;;;;;;;2.25;1.00;;;;;20.40;42.34;101403.38;4953608;27;50951;-47
2021/11/14 05:35:34;;;;;;;;;1.25;1.25;;;;;20.40;42.00;101410.81;4954311;28;51119;-49
2021/11/14 05:38:00;;;;;;;;;2.00;2.00;;;;;20.39;42.12;101409.94;4954832;28;51120;-52
2021/11/14 05:40:25;;;;;;;;;2.00;1.00;;;;;20.38;41.89;101402.75;4970494;28;51182;-49
2021/11/14 05:42:51;;;;;;;;;1.75;1.75;;;;;20.38;42.26;101407.41;4972453;28;50928;-49
2021/11/14 05:45:16;;;;;;;;;3.50;2.00;;;;;20.39;42.16;101411.84;4972845;28;50880;-48
2021/11/14 05:47:42;;;;;;;;;0.75;0.75;;;;;20.37;41.89;101416.72;4970687;28;51664;-50
2021/11/14 05:50:10;;;;;;;;;1.00;1.00;;;;;20.37;42.07;101416.72;4975603;28;51112;-48
2021/11/14 05:52:35;;;;;;;;;1.00;1.00;;;;;20.37;42.42;101413.97;4953470;28;51227;-50
2021/11/14 05:55:01;;;;;;;;;1.00;1.00;;;;;20.37;42.17;101424.97;4954156;28;51267;-52
2021/11/14 05:57:27;;;;;;;;;1.00;1.00;;;;;20.36;41.87;101420.53;4954526;28;51886;-45
2021/11/14 06:00:06;;;;;;;;;1.00;1.00;;;;;20.35;42.61;101427.94;4962953;28;51422;-51
2021/11/14 06:07:29;;;;;;;;;2.00;1.00;;;;;20.35;42.04;101429.84;4971007;28;51851;-49
2021/11/14 06:09:55;;;;;;;;;1.00;1.00;;;;;20.34;42.39;101428.16;4962549;28;51320;-50
2021/11/14 06:12:20;;;;;;;;;1.00;1.00;;;;;20.34;42.53;101425.41;4955407;28;51165;-46
2021/11/14 06:14:46;;;;;;;;;1.25;1.25;;;;;20.34;42.65;101433.66;4972386;28;51127;-52
2021/11/14 06:17:11;;;;;;;;;1.25;1.25;;;;;20.34;42.22;101442.75;4970649;28;51727;-52
2021/11/14 06:19:36;;;;;;;;;1.00;1.00;;;;;20.34;42.24;101430.91;4964274;28;51019;-50
2021/11/14 06:22:02;;;;;;;;;1.00;1.00;;;;;20.33;42.05;101438.31;4968476;28;51192;-49
2021/11/14 06:24:27;;;;;;;;;1.00;1.00;;;;;20.33;42.30;101445.72;4959634;28;51034;-51
2021/11/14 06:26:52;;;;;;;;;2.75;2.75;;;;;20.32;42.11;101444.88;4965360;28;51760;-47
2021/11/14 06:29:18;;;;;;;;;2.00;1.00;;;;;20.31;42.24;101451.41;4957527;28;51032;-52
2021/11/14 06:31:43;;;;;;;;;1.75;1.00;;;;;20.32;42.15;101452.25;4987033;28;51068;-48
2021/11/14 06:34:09;;;;;;;;;1.25;1.00;;;;;20.31;42.14;101453.31;4972282;28;51115;-50
2021/11/14 06:36:34;;;;;;;;;1.00;1.00;;;;;20.31;42.08;101451.41;4970055;28;51532;-48
2021/11/14 06:39:00;;;;;;;;;2.00;2.00;;;;;20.30;42.33;101454.38;4969476;28;51109;-46
2021/11/14 06:41:25;;;;;;;;;0.75;0.75;;;;;20.29;42.60;101453.53;4953278;28;51146;-49
2021/11/14 06:43:50;;;;;;;;;1.75;1.00;;;;;20.29;42.36;101459.03;4968220;28;51100;-52
2021/11/14 06:46:16;;;;;;;;;2.50;1.00;;;;;20.29;42.18;101464.53;4959425;28;51107;-48
2021/11/14 06:48:42;;;;;;;;;0.75;0.75;;;;;20.30;42.04;101465.38;4952766;28;51165;-48
2021/11/14 06:51:08;;;;;;;;;1.00;1.00;;;;;20.29;42.56;101464.53;4964905;28;51114;-51
2021/11/14 06:53:33;;;;;;;;;1.00;1.00;;;;;20.29;42.35;101464.53;4955281;28;50991;-50
2021/11/14 06:55:59;;;;;;;;;0.75;0.75;;;;;20.28;42.33;101471.09;4970212;28;51814;-51
2021/11/14 06:58:24;;;;;;;;;0.50;0.50;;;;;20.28;42.20;101462.00;4974149;28;51207;-47
2021/11/14 07:00:50;;;;;;;;;1.75;1.75;;;;;20.27;42.18;101472.16;4970706;28;51142;-48
2021/11/14 07:03:16;;;;;;;;;2.25;1.75;;;;;20.26;42.45;101481.47;4970878;28;51454;-48
2021/11/14 07:05:41;;;;;;;;;0.00;0.00;;;;;20.26;42.42;101481.47;4959555;28;52134;-47
2021/11/14 07:08:08;;;;;;;;;1.00;1.00;;;;;20.24;42.30;101490.97;4970441;28;51192;-51
2021/11/14 07:10:33;;;;;;;;;0.50;0.50;;;;;20.25;42.60;101485.25;4958322;28;51405;-51
2021/11/14 07:12:59;;;;;;;;;0.50;0.00;;;;;20.24;42.55;101489.06;4974930;28;51168;-50
2021/11/14 07:15:25;;;;;;;;;1.75;1.50;;;;;20.23;42.14;101487.38;4974250;28;51980;-52
2021/11/14 07:17:50;;;;;;;;;2.00;2.00;;;;;20.23;42.46;101487.38;4972725;28;51120;-49
2021/11/14 07:20:17;;;;;;;;;0.00;0.00;;;;;20.23;42.61;101492.03;4961108;28;51287;-49
2021/11/14 07:22:45;;;;;;;;;1.25;1.25;;;;;20.22;42.27;101498.56;4956201;28;51669;-50
2021/11/14 07:25:15;;;;;;;;;1.00;0.75;;;;;20.22;42.44;101499.44;4968295;28;52336;-50
2021/11/14 07:27:42;;;;;;;;;1.00;1.00;;;;;20.22;42.24;101501.31;4978300;28;51360;-50
2021/11/14 07:30:09;;;;;;;;;2.00;2.00;;;;;20.22;42.29;101512.31;4955573;28;51063;-51
2021/11/14 07:32:34;;;;;;;;;2.00;0.00;;;;;20.21;42.75;101505.97;4955489;28;51166;-51
2021/11/14 07:35:00;;;;;;;;;2.50;0.75;;;;;20.22;42.68;101512.31;4958101;28;51720;-49
2021/11/14 07:37:25;;;;;;;;;1.00;1.00;;;;;20.21;42.37;101516.13;4955326;28;51054;-51
2021/11/14 07:39:50;;;;;;;;;2.75;1.00;;;;;20.22;42.35;101524.19;4965246;28;51147;-52
2021/11/14 07:42:16;;;;;;;;;0.50;0.00;;;;;20.19;42.52;101525.44;4974520;28;51270;-48
2021/11/14 07:44:41;;;;;;;;;0.00;0.00;;;;;20.19;42.30;101522.69;4967182;28;51032;-51
2021/11/14 07:47:06;;;;;;;;;1.00;1.00;;;;;20.20;42.70;101529.03;4973816;28;51013;-48
2021/11/14 07:49:32;;;;;;;;;1.50;0.00;;;;;20.19;42.32;101530.09;4978429;28;51289;-50
2021/11/14 07:51:57;;;;;;;;;1.00;1.00;;;;;20.19;42.64;101528.19;4958192;28;51108;-51
2021/11/14 07:54:23;;;;;;;;;0.00;0.00;;;;;20.19;42.65;101535.59;4967592;28;52352;-47
2021/11/14 07:56:48;;;;;;;;;0.00;0.00;;;;;20.18;42.27;101534.75;4956453;28;51097;-46
2021/11/14 07:59:13;;;;;;;;;1.00;1.00;;;;;20.17;42.68;101538.53;4957057;28;51086;-49
2021/11/14 08:01:39;;;;;;;;;1.00;1.00;;;;;20.17;42.41;101535.78;4955544;28;50962;-49
2021/11/14 08:04:04;;;;;;;;;1.00;0.00;;;;;20.18;42.38;101545.75;4969813;28;51048;-46
2021/11/14 08:06:30;;;;;;;;;0.50;0.50;;;;;20.17;42.66;101541.28;4969256;28;51148;-50
2021/11/14 08:08:55;;;;;;;;;1.00;1.00;;;;;20.17;42.11;101548.69;4972260;28;51113;-50
2021/11/14 08:11:21;;;;;;;;;0.50;0.50;;;;;20.16;42.60;101547.00;4974267;28;51238;-47
2021/11/14 08:13:46;;;;;;;;;2.00;0.00;;;;;20.15;42.41;101540.66;4959344;28;51724;-51
2021/11/14 08:16:11;;;;;;;;;0.75;0.75;;;;;20.16;42.87;101553.34;4971781;28;51004;-51
2021/11/14 08:18:37;;;;;;;;;0.50;0.00;;;;;20.15;42.33;101553.56;4957000;28;51171;-50
2021/11/14 08:21:02;;;;;;;;;0.50;0.50;;;;;20.14;42.57;101560.97;4966553;28;51122;-47
2021/11/14 08:23:28;;;;;;;;;1.00;1.00;;;;;20.13;42.75;101564.78;4972484;28;51775;-52
2021/11/14 08:25:54;;;;;;;;;1.25;1.25;;;;;20.14;42.42;101558.22;4958936;28;51231;-52
2021/11/14 08:28:19;;;;;;;;;1.50;1.25;;;;;20.12;42.76;101554.81;4957744;28;51235;-50
2021/11/14 08:30:45;;;;;;;;;3.00;3.00;;;;;20.13;43.00;101563.94;4969790;28;51143;-50
2021/11/14 08:33:11;;;;;;;;;3.25;3.25;;;;;20.11;43.00;101560.50;4953976;28;51080;-50
2021/11/14 08:35:38;;;;;;;;;2.50;2.50;;;;;20.10;42.76;101556.91;4964715;28;50982;-49
2021/11/14 08:38:05;;;;;;;;;3.75;3.00;;;;;20.10;43.07;101564.31;4960747;28;51309;-52
2021/11/14 08:40:33;;;;;;;;;5.75;4.50;;;;;20.09;43.36;101560.72;4965637;28;51168;-49
2021/11/14 08:42:59;;;;;;;;;3.00;3.00;;;;;20.06;43.02;101558.38;4965068;28;51236;-52
2021/11/14 08:45:28;;;;;;;;;3.00;3.00;;;;;20.04;43.36;101543.97;4957400;28;51123;-51
2021/11/14 08:47:54;;;;;;;;;3.25;3.25;;;;;20.08;43.33;101552.66;4954684;28;51383;-45
2021/11/14 08:50:20;;;;;;;;;3.00;1.75;;;;;20.13;43.58;101552.94;4958495;28;51111;-45
2021/11/14 08:52:45;;;;;;;;;2.00;1.00;;;;;20.22;43.42;101546.22;4954452;28;51217;-49
2021/11/14 08:55:12;;;;;;;;;1.25;1.25;;;;;20.32;43.34;101551.31;4953850;28;51323;-49
2021/11/14 08:57:38;;;;;;;;;2.25;2.00;;;;;20.42;43.20;101557.28;4967662;28;51118;-49
2021/11/14 09:00:05;;;;;;;;;2.00;2.00;;;;;20.52;43.64;101568.78;4959675;28;51337;-51
2021/11/14 09:02:30;;;;;;;;;2.25;1.75;;;;;20.62;43.15;101549.13;4961911;28;51853;-49
2021/11/14 09:04:56;;;;;;;;;2.00;2.00;;;;;20.71;43.58;101559.75;4954664;28;51137;-47
2021/11/14 09:07:21;;;;;;;;;0.00;0.00;;;;;20.80;43.67;101551.31;4962659;28;51591;-50
2021/11/14 09:09:46;;;;;;;;;1.50;1.00;;;;;20.91;43.08;101553.47;4955679;28;51335;-51
2021/11/14 09:12:12;;;;;;;;;1.50;1.00;;;;;21.01;42.94;101552.00;4965546;28;51690;-45
2021/11/14 09:14:37;;;;;;;;;2.00;1.25;;;;;21.10;43.09;101557.34;4959135;28;51105;-53
2021/11/14 09:17:03;;;;;;;;;1.25;1.25;;;;;21.18;43.01;101566.25;4962931;28;51208;-49
2021/11/14 09:19:28;;;;;;;;;1.50;1.00;;;;;21.27;42.84;101562.28;4953566;28;51270;-49
2021/11/14 09:21:54;;;;;;;;;1.50;1.00;;;;;21.36;43.04;101565.66;4957335;28;51171;-47
2021/11/14 09:24:19;;;;;;;;;2.00;2.00;;;;;21.43;42.85;101573.94;4958009;28;51167;-50
2021/11/14 09:26:45;;;;;;;;;1.00;1.00;;;;;21.51;42.49;101569.06;4972773;28;51300;-52
2021/11/14 09:29:12;;;;;;;;;2.00;1.00;;;;;21.59;42.67;101579.03;4960073;28;51114;-51
2021/11/14 09:31:38;;;;;;;;;2.50;2.50;;;;;21.64;42.48;101573.72;4963567;28;52603;-49
2021/11/14 09:34:04;;;;;;;;;3.25;2.50;;;;;21.68;42.86;101569.50;4966509;28;51280;-46
2021/11/14 09:36:31;;;;;;;;;2.50;1.25;;;;;21.68;42.66;101580.53;4967151;28;51180;-46
2021/11/14 09:39:02;;;;;;;;;2.25;1.50;;;;;21.68;42.91;101577.78;4956723;28;51132;-48
2021/11/14 09:41:29;;;;;;;;;2.00;2.00;;;;;21.67;42.71;101569.69;4967202;28;52491;-45
2021/11/14 09:43:54;;;;;;;;;2.25;2.25;;;;;21.65;42.97;101563.53;4953448;28;51144;-46
2021/11/14 09:46:20;;;;;;;;;3.00;3.00;;;;;21.64;42.49;101570.97;4958838;28;51226;-46
2021/11/14 09:48:46;;;;;;;;;3.75;3.00;;;;;21.64;42.78;101572.88;4952714;28;51435;-47
2021/11/14 09:51:11;;;;;;;;;5.00;4.00;;;;;21.64;42.94;101568.22;4951534;28;51344;-44
2021/11/14 09:53:37;;;;;;;;;2.00;2.00;;;;;21.65;42.64;101564.38;4957094;28;51106;-46
2021/11/14 09:56:04;;;;;;;;;2.00;2.00;;;;;21.72;42.38;101565.25;4967523;28;51413;-45
2021/11/14 09:58:30;;;;;;;;;3.75;3.00;;;;;21.79;42.77;101566.09;4965558;28;51233;-45
2021/11/14 10:00:59;;;;;;;;;3.00;3.00;;;;;21.87;42.23;101576.03;4952985;28;51160;-45
2021/11/14 10:03:24;;;;;;;;;3.25;2.00;;;;;21.96;42.21;101576.66;4955211;28;51185;-45
2021/11/14 10:05:51;;;;;;;;;6.00;3.75;;;;;22.03;42.14;101580.25;4953482;28;51173;-46
2021/11/14 10:08:19;;;;;;;;;4.25;3.00;;;;;22.09;42.50;101576.66;4953088;28;51312;-46
2021/11/14 10:10:47;;;;;;;;;3.50;1.75;;;;;22.10;42.10;101578.38;4953802;28;52691;-48
2021/11/14 10:13:22;;;;;;;;;3.00;3.00;;;;;22.09;41.92;101571.13;4963558;28;51345;-50
2021/11/14 10:15:51;;;;;;;;;3.00;3.00;;;;;22.07;42.35;101584.31;4958358;28;51090;-49
2021/11/14 10:18:19;;;;;;;;;3.00;2.25;;;;;22.03;42.10;101583.03;4959527;28;51977;-50
2021/11/14 10:20:45;;;;;;;;;2.25;2.25;;;;;21.98;42.16;101578.13;4966288;28;51026;-48
2021/11/14 10:23:14;;;;;;;;;2.25;2.25;;;;;21.93;42.37;101572.44;4954385;28;51593;-45
2021/11/14 10:25:41;;;;;;;;;4.50;4.00;;;;;21.87;42.30;101568.59;4957202;28;51172;-49
2021/11/14 10:28:07;;;;;;;;;2.25;2.25;;;;;21.87;41.96;101570.50;4972569;28;51030;-49
2021/11/14 10:30:38;;;;;;;;;3.00;3.00;;;;;21.90;42.16;101568.19;4957515;28;51171;-45
2021/11/14 10:33:07;;;;;;;;;1.75;1.75;;;;;21.97;42.13;101575.59;4961182;28;51132;-47
2021/11/14 10:35:34;;;;;;;;;2.75;2.00;;;;;22.02;41.45;101579.41;4974717;28;51233;-47
2021/11/14 10:38:20;;;;;;;;;2.00;2.00;;;;;22.07;41.79;101574.13;4967603;28;51168;-46
2021/11/14 10:40:49;;;;;;;;;3.00;3.00;;;;;22.15;41.68;101571.13;4965393;28;52072;-48
2021/11/14 10:43:18;;;;;;;;;1.50;1.50;;;;;22.19;41.53;101566.03;4954485;28;51241;-49
2021/11/14 10:45:45;;;;;;;;;2.00;2.00;;;;;22.19;41.56;101566.03;4958091;28;51219;-47
2021/11/14 10:48:14;;;;;;;;;3.25;1.00;;;;;22.18;41.44;101570.69;4953810;28;51187;-48
2021/11/14 10:50:43;;;;;;;;;2.25;2.25;;;;;22.15;41.47;101573.91;4960260;28;51977;-47
2021/11/14 10:53:12;;;;;;;;;2.25;2.25;;;;;22.10;41.05;101579.22;4959670;28;51014;-47
2021/11/14 10:55:44;;;;;;;;;3.75;2.75;;;;;22.05;41.63;101572.63;4959729;28;51212;-47
2021/11/14 10:58:11;;;;;;;;;3.50;3.50;;;;;22.02;41.93;101584.09;4972531;28;51562;-48
2021/11/14 11:00:38;;;;;;;;;4.00;3.00;;;;;21.97;41.44;101572.84;4958951;28;52080;-46
2021/11/14 11:03:05;;;;;;;;;3.00;3.00;;;;;21.94;42.11;101576.88;4953908;28;51565;-48
2021/11/14 11:05:32;;;;;;;;;1.75;1.75;;;;;21.97;42.04;101589.38;4955545;28;51307;-47
2021/11/14 11:08:00;;;;;;;;;1.75;1.75;;;;;21.99;41.49;101573.47;4958014;28;51510;-47
2021/11/14 11:10:38;;;;;;;;;6.25;6.00;;;;;22.00;41.35;101580.72;4954809;28;51092;-46
2021/11/14 11:13:06;;;;;;;;;7.00;4.00;;;;;21.97;41.87;101579.19;4969866;28;51206;-45
2021/11/14 11:15:42;;;;;;;;;5.00;3.00;;;;;21.94;41.95;101578.78;4955258;28;52224;-45
2021/11/14 11:18:14;;;;;;;;;6.00;4.00;;;;;21.89;41.61;101579.44;4973884;28;51451;-46
2021/11/14 11:20:41;;;;;;;;;3.75;3.75;;;;;21.85;41.69;101579.00;4974704;28;51983;-49
2021/11/14 11:23:12;;;;;;;;;8.00;5.00;;;;;21.82;41.96;101571.16;4974597;28;51248;-48
2021/11/14 11:25:42;;;;;;;;;6.75;4.00;;;;;21.78;41.81;101575.44;4974966;28;51058;-49